Time;durP1;ratioP1;P1;durP2;ratioP2;P2;SDS_P1;SDS_P2;PMS_P1;PMS_P2;Temp;Humidity;BMP_temperature;BMP_pressure;BME280_temperature;BME280_humidity;BME280_pressure;Samples;Min_cycle;Max_cycle;Signal;HPM_P1;HPM_P2
2023/01/26 00:00:08;;;;;;;53.67;22.90;;;;;;;-2.15;100.00;101704.97;699617;28;1210;-58
2023/01/26 00:00:30;;;;;;;50.58;22.30;;;;;;;-2.13;100.00;101705.06;700135;28;1165;-58
2023/01/26 00:00:51;;;;;;;52.10;22.60;;;;;;;-2.16;100.00;101699.75;700040;28;4579;-59
2023/01/26 00:01:18;;;;;;;49.34;22.22;;;;;;;-2.07;100.00;101698.66;699644;28;1242;-59
2023/01/26 00:01:38;;;;;;;48.80;21.50;;;;;;;-2.04;100.00;101697.09;699484;28;3225;-58
2023/01/26 00:01:59;;;;;;;47.53;21.07;;;;;;;-2.07;100.00;101706.34;698681;28;1183;-59
2023/01/26 00:02:19;;;;;;;48.90;22.47;;;;;;;-2.02;100.00;101696.41;698586;28;1173;-59
2023/01/26 00:02:39;;;;;;;50.27;23.00;;;;;;;-1.95;100.00;101697.66;699209;28;1284;-58
2023/01/26 00:03:00;;;;;;;48.90;22.10;;;;;;;-1.94;100.00;101704.56;699242;28;1648;-59
2023/01/26 00:03:21;;;;;;;46.67;21.60;;;;;;;-1.98;100.00;101700.03;699441;28;995;-59
2023/01/26 00:03:41;;;;;;;45.35;21.77;;;;;;;-1.99;100.00;101696.59;696795;28;4544;-58
2023/01/26 00:04:02;;;;;;;45.37;21.57;;;;;;;-1.93;100.00;101701.22;696168;28;1969;-59
2023/01/26 00:04:22;;;;;;;46.13;21.20;;;;;;;-2.00;100.00;101702.50;696050;28;3184;-59
2023/01/26 00:04:42;;;;;;;47.13;22.07;;;;;;;-1.94;100.00;101702.00;694343;28;1496;-58
2023/01/26 00:05:03;;;;;;;47.25;21.75;;;;;;;-1.99;100.00;101695.72;694058;28;1207;-59
2023/01/26 00:05:23;;;;;;;45.60;21.30;;;;;;;-1.90;100.00;101698.84;692229;28;2207;-59
2023/01/26 00:05:44;;;;;;;45.90;21.17;;;;;;;-1.88;100.00;101703.28;695145;28;2107;-58
2023/01/26 00:06:06;;;;;;;46.03;21.23;;;;;;;-1.96;100.00;101693.34;693731;28;1463;-58
2023/01/26 00:06:27;;;;;;;44.55;20.98;;;;;;;-2.04;100.00;101707.34;694200;28;1143;-58
2023/01/26 00:06:47;;;;;;;44.20;20.87;;;;;;;-2.11;100.00;101700.94;695500;28;4517;-58
2023/01/26 00:07:07;;;;;;;42.20;20.63;;;;;;;-2.12;100.00;101702.63;697310;28;1091;-60
2023/01/26 00:07:28;;;;;;;44.87;21.17;;;;;;;-2.08;100.00;101701.13;695954;28;3238;-59
2023/01/26 00:07:48;;;;;;;46.35;21.05;;;;;;;-2.10;100.00;101692.47;697624;28;1218;-56
2023/01/26 00:08:09;;;;;;;43.93;20.20;;;;;;;-2.14;100.00;101696.50;697035;28;1127;-59
2023/01/26 00:08:29;;;;;;;44.80;21.38;;;;;;;-2.10;100.00;101695.91;696933;28;1127;-59
2023/01/26 00:08:52;;;;;;;49.17;22.20;;;;;;;-2.11;100.00;101696.69;697459;28;1264;-60
2023/01/26 00:09:14;;;;;;;48.08;21.50;;;;;;;-2.08;100.00;101694.34;697560;28;1068;-57
2023/01/26 00:09:34;;;;;;;44.53;20.95;;;;;;;-2.11;100.00;101691.56;699389;28;1126;-60
2023/01/26 00:09:55;;;;;;;46.92;21.50;;;;;;;-2.07;100.00;101700.34;699667;28;4325;-58
2023/01/26 00:10:15;;;;;;;49.33;21.87;;;;;;;-2.11;100.00;101696.69;699072;28;3418;-58
2023/01/26 00:10:36;;;;;;;50.47;22.42;;;;;;;-2.05;100.00;101701.31;700301;28;1307;-58
2023/01/26 00:11:02;;;;;;;50.53;22.58;;;;;;;-2.06;100.00;101695.31;699922;28;1737;-59
2023/01/26 00:11:26;;;;;;;48.40;22.35;;;;;;;-2.07;100.00;101697.78;699864;28;1317;-60
2023/01/26 00:11:46;;;;;;;49.22;22.17;;;;;;;-2.13;100.00;101698.28;698905;28;1475;-59
2023/01/26 00:12:07;;;;;;;46.97;21.67;;;;;;;-2.18;100.00;101701.34;698558;28;1308;-58
2023/01/26 00:12:27;;;;;;;49.55;22.35;;;;;;;-2.18;100.00;101694.53;696135;28;1087;-58
2023/01/26 00:12:47;;;;;;;50.13;22.47;;;;;;;-2.15;100.00;101694.72;696677;28;4361;-59
2023/01/26 00:13:09;;;;;;;52.80;23.17;;;;;;;-2.18;100.00;101699.66;696992;28;1031;-61
2023/01/26 00:13:29;;;;;;;48.25;22.20;;;;;;;-2.20;100.00;101697.78;697798;28;1126;-59
2023/01/26 00:13:50;;;;;;;48.70;22.33;;;;;;;-2.24;100.00;101697.59;693441;28;3143;-60
2023/01/26 00:14:10;;;;;;;50.40;22.77;;;;;;;-2.25;100.00;101694.94;694155;28;1306;-59
2023/01/26 00:14:48;;;;;;;53.70;23.48;;;;;;;-2.27;100.00;101693.94;694845;28;1186;-60
2023/01/26 00:15:09;;;;;;;49.97;22.45;;;;;;;-2.27;100.00;101693.94;695231;28;1138;-59
2023/01/26 00:15:32;;;;;;;48.83;22.60;;;;;;;-2.28;100.00;101699.88;694358;28;1175;-58
2023/01/26 00:15:52;;;;;;;50.80;22.73;;;;;;;-2.31;100.00;101697.09;696739;28;4514;-60
2023/01/26 00:16:13;;;;;;;52.17;22.80;;;;;;;-2.32;100.00;101701.34;697310;28;1305;-59
2023/01/26 00:16:34;;;;;;;51.85;22.92;;;;;;;-2.29;100.00;101698.09;696875;28;3299;-60
2023/01/26 00:16:54;;;;;;;51.42;23.20;;;;;;;-2.26;100.00;101698.28;694231;28;1927;-58
2023/01/26 00:17:24;;;;;;;53.37;23.50;;;;;;;-2.25;100.00;101707.75;695430;28;1083;-58
2023/01/26 00:17:44;;;;;;;51.88;22.73;;;;;;;-2.26;100.00;101698.28;693497;28;1368;-58
2023/01/26 00:18:05;;;;;;;49.78;22.08;;;;;;;-2.27;100.00;101699.97;693165;28;1628;-60
2023/01/26 00:18:25;;;;;;;47.97;22.70;;;;;;;-2.31;100.00;101698.00;693784;28;1423;-58
2023/01/26 00:18:46;;;;;;;48.60;22.38;;;;;;;-2.32;100.00;101700.47;692849;28;4312;-59
2023/01/26 00:19:06;;;;;;;50.33;22.23;;;;;;;-2.30;100.00;101693.75;694446;28;1503;-59
2023/01/26 00:19:26;;;;;;;51.28;23.42;;;;;;;-2.29;100.00;101690.41;695120;28;1209;-60
2023/01/26 00:19:47;;;;;;;52.60;23.00;;;;;;;-2.20;100.00;101691.00;697034;28;1250;-59
2023/01/26 00:20:08;;;;;;;53.87;23.73;;;;;;;-2.14;100.00;101690.50;695783;28;3989;-59
2023/01/26 00:20:29;;;;;;;55.13;23.73;;;;;;;-2.16;100.00;101687.84;697107;28;1213;-59
2023/01/26 00:20:57;;;;;;;54.33;23.83;;;;;;;-2.19;100.00;101687.63;699350;28;1671;-59
2023/01/26 00:21:19;;;;;;;48.88;21.23;;;;;;;-2.20;100.00;101690.09;699358;28;1272;-59
2023/01/26 00:21:40;;;;;;;48.50;21.90;;;;;;;-2.22;100.00;101687.44;699284;28;4890;-59
2023/01/26 00:22:00;;;;;;;51.70;23.52;;;;;;;-2.25;100.00;101687.25;699137;28;1334;-57
2023/01/26 00:22:21;;;;;;;54.00;23.60;;;;;;;-2.26;100.00;101691.50;700516;28;1138;-59
2023/01/26 00:22:41;;;;;;;51.25;22.85;;;;;;;-2.27;100.00;101684.59;699518;28;1550;-59
2023/01/26 00:23:02;;;;;;;50.20;22.13;;;;;;;-2.30;100.00;101683.50;699165;28;1380;-59
2023/01/26 00:23:23;;;;;;;53.23;23.23;;;;;;;-2.31;100.00;101684.28;698842;28;1175;-59
2023/01/26 00:23:44;;;;;;;53.65;23.30;;;;;;;-2.33;100.00;101679.06;699632;28;1082;-58
2023/01/26 00:24:04;;;;;;;51.02;23.38;;;;;;;-2.32;100.00;101682.53;699126;28;1922;-59
2023/01/26 00:24:25;;;;;;;52.00;22.97;;;;;;;-2.32;100.00;101679.97;700167;28;1372;-59
2023/01/26 00:24:45;;;;;;;52.15;22.65;;;;;;;-2.32;100.00;101682.53;696005;28;4453;-58
2023/01/26 00:25:06;;;;;;;51.87;23.07;;;;;;;-2.31;100.00;101682.63;697222;28;1385;-60
2023/01/26 00:25:26;;;;;;;50.17;22.98;;;;;;;-2.33;100.00;101680.75;694710;28;1294;-60
2023/01/26 00:25:47;;;;;;;49.33;22.97;;;;;;;-2.32;100.00;101679.97;694454;28;1247;-59
2023/01/26 00:26:10;;;;;;;50.77;22.47;;;;;;;-2.30;100.00;101674.16;694816;28;1151;-59
2023/01/26 00:26:31;;;;;;;49.63;22.48;;;;;;;-2.34;100.00;101678.97;692737;28;1316;-60
2023/01/26 00:26:52;;;;;;;50.53;22.73;;;;;;;-2.35;100.00;101677.19;689221;28;1223;-59
2023/01/26 00:27:12;;;;;;;48.40;22.33;;;;;;;-2.31;100.00;101677.50;690165;28;1275;-60
2023/01/26 00:27:32;;;;;;;49.53;22.43;;;;;;;-2.25;100.00;101677.00;693002;28;1246;-60
2023/01/26 00:27:56;;;;;;;51.63;22.95;;;;;;;-2.26;100.00;101676.16;691425;28;4397;-59
2023/01/26 00:28:16;;;;;;;47.17;21.88;;;;;;;-2.26;100.00;101675.22;691952;28;1231;-59
2023/01/26 00:28:37;;;;;;;49.93;22.57;;;;;;;-2.27;100.00;101678.56;692626;28;3275;-60
2023/01/26 00:28:59;;;;;;;48.83;22.55;;;;;;;-2.28;100.00;101677.69;694026;28;1444;-59
2023/01/26 00:29:19;;;;;;;51.08;23.00;;;;;;;-2.28;100.00;101675.13;695051;28;1270;-59
2023/01/26 00:29:40;;;;;;;50.97;22.83;;;;;;;-2.28;100.00;101681.94;695103;28;1384;-58
2023/01/26 00:30:00;;;;;;;52.70;22.90;;;;;;;-2.29;100.00;101673.34;691863;28;1420;-60
2023/01/26 00:30:21;;;;;;;48.63;22.48;;;;;;;-2.31;100.00;101681.72;689438;28;1306;-60
2023/01/26 00:30:41;;;;;;;52.67;22.03;;;;;;;-2.32;100.00;101675.72;686603;28;4548;-60
2023/01/26 00:31:07;;;;;;;51.97;23.20;;;;;;;-2.30;100.00;101675.81;689022;28;1397;-59
2023/01/26 00:31:27;;;;;;;50.20;23.38;;;;;;;-2.30;100.00;101680.94;688617;28;3346;-60
2023/01/26 00:31:49;;;;;;;51.17;23.40;;;;;;;-2.29;100.00;101673.34;689545;28;1215;-60
2023/01/26 00:32:09;;;;;;;52.00;23.70;;;;;;;-2.27;100.00;101676.00;692671;28;1119;-59
2023/01/26 00:32:29;;;;;;;52.43;23.53;;;;;;;-2.28;100.00;101669.16;692194;28;1350;-59
2023/01/26 00:32:49;;;;;;;51.67;23.90;;;;;;;-2.33;100.00;101668.81;694983;28;1167;-59
2023/01/26 00:33:10;;;;;;;51.20;23.93;;;;;;;-2.36;100.00;101663.53;694458;28;1154;-59
2023/01/26 00:33:31;;;;;;;51.33;24.00;;;;;;;-2.26;100.00;101665.00;692075;28;1522;-61
2023/01/26 00:33:53;;;;;;;53.92;23.90;;;;;;;-2.21;100.00;101666.16;691698;28;4578;-59
2023/01/26 00:34:13;;;;;;;55.45;23.92;;;;;;;-2.17;100.00;101670.69;689323;28;1231;-60
2023/01/26 00:34:35;;;;;;;54.88;25.48;;;;;;;-2.20;100.00;101661.91;688934;28;3536;-59
2023/01/26 00:34:55;;;;;;;51.73;23.73;;;;;;;-2.21;100.00;101666.16;688909;28;1231;-59
2023/01/26 00:35:16;;;;;;;53.05;23.38;;;;;;;-2.19;100.00;101666.25;687400;28;1671;-58
2023/01/26 00:35:36;;;;;;;53.40;24.57;;;;;;;-2.21;100.00;101667.88;689421;28;1224;-60
2023/01/26 00:35:57;;;;;;;54.45;23.38;;;;;;;-2.20;100.00;101673.06;689122;28;1534;-61
2023/01/26 00:36:17;;;;;;;54.20;23.87;;;;;;;-2.14;100.00;101668.31;692321;28;1178;-58
2023/01/26 00:36:38;;;;;;;52.47;24.02;;;;;;;-2.15;100.00;101666.53;694013;28;4283;-59
2023/01/26 00:36:58;;;;;;;53.77;24.17;;;;;;;-2.15;100.00;101671.66;696358;28;1308;-59
2023/01/26 00:37:19;;;;;;;50.43;23.73;;;;;;;-2.15;100.00;101669.09;699924;28;1297;-60
2023/01/26 00:37:42;;;;;;;49.53;23.17;;;;;;;-2.19;100.00;101664.56;699423;28;1225;-58
2023/01/26 00:38:03;;;;;;;52.22;23.60;;;;;;;-2.20;100.00;101661.91;698502;28;1404;-60
2023/01/26 00:38:24;;;;;;;50.42;23.40;;;;;;;-2.24;100.00;101666.00;699411;28;1237;-59
2023/01/26 00:38:45;;;;;;;55.08;23.73;;;;;;;-2.28;100.00;101661.47;695264;28;5013;-60
2023/01/26 00:39:05;;;;;;;55.55;24.20;;;;;;;-2.29;100.00;101669.94;692587;28;1456;-59
2023/01/26 00:39:25;;;;;;;50.07;22.53;;;;;;;-2.29;100.00;101663.13;692644;28;1441;-59
2023/01/26 00:39:46;;;;;;;50.40;23.80;;;;;;;-2.28;100.00;101661.47;691551;28;4993;-58
2023/01/26 00:40:07;;;;;;;52.80;24.13;;;;;;;-2.27;100.00;101665.78;688384;28;1381;-58
2023/01/26 00:40:27;;;;;;;52.40;23.77;;;;;;;-2.27;100.00;101664.13;689124;28;1330;-59
2023/01/26 00:40:47;;;;;;;53.42;24.15;;;;;;;-2.29;100.00;101659.69;689501;28;1367;-59
2023/01/26 00:42:05;;;;;;;53.63;24.77;;;;;;;-2.34;100.00;101661.06;690855;28;1095;-59
2023/01/26 00:42:28;;;;;;;55.30;24.25;;;;;;;-2.03;100.00;101665.56;696312;28;3472;-59
2023/01/26 00:42:53;;;;;;;51.92;24.45;;;;;;;-1.97;100.00;101654.00;696229;28;5329;-58
2023/01/26 00:43:13;;;;;;;55.42;24.48;;;;;;;-1.83;100.00;101651.41;697089;28;1165;-58
2023/01/26 00:43:34;;;;;;;52.97;23.97;;;;;;;-1.77;100.00;101659.50;696536;28;1400;-59
2023/01/26 00:43:54;;;;;;;50.80;23.50;;;;;;;-1.77;100.00;101655.22;697350;28;1317;-58
2023/01/26 00:44:14;;;;;;;52.07;24.33;;;;;;;-1.75;100.00;101652.75;696977;28;1921;-59
2023/01/26 00:44:39;;;;;;;54.22;24.05;;;;;;;-1.83;100.00;101648.84;694369;28;1321;-59
2023/01/26 00:45:00;;;;;;;53.78;22.95;;;;;;;-1.98;100.00;101648.78;695935;28;1214;-59
2023/01/26 00:45:20;;;;;;;51.10;22.83;;;;;;;-2.03;100.00;101653.63;694940;28;1130;-59
2023/01/26 00:45:41;;;;;;;51.60;23.52;;;;;;;-2.13;100.00;101651.25;693468;28;5303;-60
2023/01/26 00:46:02;;;;;;;55.05;23.75;;;;;;;-2.18;100.00;101656.09;691535;28;1088;-59
2023/01/26 00:46:22;;;;;;;54.93;23.93;;;;;;;-2.19;100.00;101646.66;691859;28;3200;-59
2023/01/26 00:46:42;;;;;;;54.22;23.33;;;;;;;-2.24;100.00;101653.19;694667;28;1235;-59
2023/01/26 00:47:07;;;;;;;53.37;24.13;;;;;;;-2.26;100.00;101649.63;693980;28;1388;-60
2023/01/26 00:47:28;;;;;;;53.40;23.80;;;;;;;-2.30;100.00;101657.91;691866;28;1139;-59
2023/01/26 00:47:50;;;;;;;57.28;24.77;;;;;;;-2.36;100.00;101647.28;692016;28;1380;-58
2023/01/26 00:48:10;;;;;;;57.23;24.50;;;;;;;-2.41;100.00;101659.78;690151;28;1092;-57
2023/01/26 00:48:31;;;;;;;58.33;25.08;;;;;;;-2.40;100.00;101652.19;691823;28;1182;-60
2023/01/26 00:48:51;;;;;;;58.40;24.20;;;;;;;-2.39;100.00;101653.09;693678;28;4470;-59
2023/01/26 00:49:12;;;;;;;56.85;24.63;;;;;;;-2.36;100.00;101657.53;694498;28;1418;-59
2023/01/26 00:49:32;;;;;;;55.42;25.23;;;;;;;-2.30;100.00;101653.69;695889;28;3063;-61
2023/01/26 00:49:53;;;;;;;54.03;24.57;;;;;;;-2.29;100.00;101658.00;696339;28;1227;-59
2023/01/26 00:50:14;;;;;;;53.57;23.50;;;;;;;-2.28;100.00;101656.34;693222;28;1263;-60
2023/01/26 00:50:34;;;;;;;56.20;23.80;;;;;;;-2.22;100.00;101659.28;693833;28;1357;-59
2023/01/26 00:50:54;;;;;;;57.35;25.40;;;;;;;-2.27;100.00;101653.88;690710;28;1238;-59
2023/01/26 00:51:15;;;;;;;58.13;26.07;;;;;;;-2.27;100.00;101658.09;694232;28;1236;-59
2023/01/26 00:51:35;;;;;;;57.85;25.13;;;;;;;-2.28;100.00;101657.22;691941;28;1323;-60
2023/01/26 00:51:58;;;;;;;57.70;24.52;;;;;;;-2.31;100.00;101654.47;693857;28;4274;-59
2023/01/26 00:52:18;;;;;;;57.30;24.45;;;;;;;-2.29;100.00;101659.69;696305;28;1309;-60
2023/01/26 00:52:38;;;;;;;57.60;24.70;;;;;;;-2.17;100.00;101654.44;696908;28;1317;-59
2023/01/26 00:52:59;;;;;;;55.78;25.25;;;;;;;-2.18;100.00;101655.25;696274;28;1225;-59
2023/01/26 00:53:19;;;;;;;57.77;25.20;;;;;;;-2.20;100.00;101654.25;693926;28;1286;-59
2023/01/26 00:53:39;;;;;;;59.47;25.23;;;;;;;-2.22;100.00;101654.16;697088;28;1284;-57
2023/01/26 00:54:00;;;;;;;58.37;24.73;;;;;;;-2.34;100.00;101651.72;694192;28;3156;-59
2023/01/26 00:54:21;;;;;;;58.13;24.58;;;;;;;-2.37;100.00;101656.63;691558;28;1148;-59
2023/01/26 00:54:41;;;;;;;57.23;24.37;;;;;;;-2.38;100.00;101652.31;691325;28;4331;-59
2023/01/26 00:55:02;;;;;;;58.20;24.95;;;;;;;-2.38;100.00;101649.75;692109;28;1417;-60
2023/01/26 00:55:22;;;;;;;58.15;25.00;;;;;;;-2.38;100.00;101648.84;691938;28;1287;-59
2023/01/26 00:55:43;;;;;;;58.67;24.63;;;;;;;-2.38;100.00;101654.88;694995;28;1463;-61
2023/01/26 00:56:03;;;;;;;59.92;25.38;;;;;;;-2.27;100.00;101648.75;692268;28;1631;-59
2023/01/26 00:56:26;;;;;;;58.53;25.30;;;;;;;-2.28;100.00;101653.78;692710;28;1310;-58
2023/01/26 00:56:47;;;;;;;56.10;24.52;;;;;;;-2.26;100.00;101650.53;693213;28;3529;-59
2023/01/26 00:57:08;;;;;;;58.10;25.53;;;;;;;-2.32;100.00;101645.00;691201;28;1155;-59
2023/01/26 00:57:29;;;;;;;58.80;25.75;;;;;;;-2.33;100.00;101647.47;691922;28;1358;-58
2023/01/26 00:57:50;;;;;;;60.72;25.77;;;;;;;-2.33;100.00;101644.91;691394;28;4377;-58
2023/01/26 00:58:10;;;;;;;62.33;26.03;;;;;;;-2.38;100.00;101646.28;695539;28;1131;-59
2023/01/26 00:58:31;;;;;;;59.30;25.48;;;;;;;-2.41;100.00;101645.31;696059;28;1118;-59
2023/01/26 00:58:51;;;;;;;57.90;25.17;;;;;;;-2.41;100.00;101653.00;694397;28;1095;-59
2023/01/26 00:59:11;;;;;;;60.55;25.35;;;;;;;-2.42;100.00;101643.53;693835;28;1107;-61
2023/01/26 00:59:32;;;;;;;59.40;25.10;;;;;;;-2.34;100.00;101646.59;693761;28;3537;-57
2023/01/26 00:59:52;;;;;;;60.55;26.25;;;;;;;-2.32;100.00;101645.00;694060;28;1609;-59
2023/01/26 01:00:15;;;;;;;58.57;25.47;;;;;;;-2.32;100.00;101644.13;694506;28;1262;-59
2023/01/26 01:00:37;;;;;;;58.40;25.13;;;;;;;-2.32;100.00;101649.25;691935;28;2183;-59
2023/01/26 01:00:58;;;;;;;58.38;25.95;;;;;;;-2.33;100.00;101644.91;693952;28;4432;-59
2023/01/26 01:01:18;;;;;;;58.63;26.13;;;;;;;-2.34;100.00;101645.69;691539;28;1310;-58
2023/01/26 01:01:39;;;;;;;61.83;26.33;;;;;;;-2.33;100.00;101645.78;691643;28;1397;-60
2023/01/26 01:02:01;;;;;;;59.47;26.45;;;;;;;-2.36;100.00;101647.28;694359;28;3391;-60
2023/01/26 01:02:22;;;;;;;55.70;25.80;;;;;;;-2.32;100.00;101644.13;692640;28;1994;-58
2023/01/26 01:02:43;;;;;;;57.65;25.45;;;;;;;-2.20;100.00;101644.00;693990;28;1360;-58
2023/01/26 01:03:05;;;;;;;57.92;24.95;;;;;;;-2.10;100.00;101641.22;693908;28;1448;-60
2023/01/26 01:03:25;;;;;;;55.40;24.30;;;;;;;-2.03;100.00;101643.38;692720;28;1377;-59
2023/01/26 01:03:45;;;;;;;54.63;23.80;;;;;;;-2.10;100.00;101647.22;690433;28;4502;-58
2023/01/26 01:04:06;;;;;;;56.83;25.43;;;;;;;-2.13;100.00;101643.56;691118;28;1902;-57
2023/01/26 01:04:29;;;;;;;52.22;24.17;;;;;;;-2.18;100.00;101638.19;694685;28;1061;-58
2023/01/26 01:04:49;;;;;;;57.65;25.27;;;;;;;-2.23;100.00;101643.03;690257;28;3716;-59
2023/01/26 01:05:10;;;;;;;56.27;24.80;;;;;;;-2.25;100.00;101638.59;687407;28;1079;-59
2023/01/26 01:05:33;;;;;;;60.00;25.30;;;;;;;-2.29;100.00;101650.31;688923;28;1100;-59
2023/01/26 01:05:54;;;;;;;59.00;25.33;;;;;;;-2.30;100.00;101639.97;690177;28;1366;-60
2023/01/26 01:06:14;;;;;;;58.43;25.57;;;;;;;-2.35;100.00;101636.22;691124;28;1246;-60
2023/01/26 01:06:34;;;;;;;57.57;25.57;;;;;;;-2.34;100.00;101649.16;690085;28;1136;-60
2023/01/26 01:06:56;;;;;;;60.17;26.38;;;;;;;-2.36;100.00;101648.16;694294;28;4509;-58
2023/01/26 01:07:16;;;;;;;60.63;26.50;;;;;;;-2.30;100.00;101643.44;692038;28;1172;-59
2023/01/26 01:07:37;;;;;;;61.10;26.37;;;;;;;-2.28;100.00;101643.53;693106;28;1668;-59
2023/01/26 01:07:57;;;;;;;58.28;25.88;;;;;;;-2.17;100.00;101649.31;692936;28;1190;-60
2023/01/26 01:08:18;;;;;;;57.33;24.97;;;;;;;-2.13;100.00;101649.59;693555;28;1316;-59
2023/01/26 01:08:38;;;;;;;58.70;24.63;;;;;;;-2.14;100.00;101645.25;693711;28;1250;-60
2023/01/26 01:09:00;;;;;;;61.03;26.50;;;;;;;-2.15;100.00;101647.75;693537;28;3550;-61
2023/01/26 01:09:21;;;;;;;58.00;26.30;;;;;;;-2.06;100.00;101649.19;698906;28;1277;-59
2023/01/26 01:09:45;;;;;;;58.70;25.23;;;;;;;-2.06;100.00;101644.06;695621;28;4416;-60
2023/01/26 01:10:07;;;;;;;58.28;25.17;;;;;;;-2.12;100.00;101643.69;695693;28;1470;-59
2023/01/26 01:10:27;;;;;;;57.35;25.42;;;;;;;-2.08;100.00;101643.09;696590;28;1218;-60
2023/01/26 01:10:47;;;;;;;58.10;25.75;;;;;;;-2.07;100.00;101647.41;698481;28;1135;-60
2023/01/26 01:11:10;;;;;;;55.03;24.10;;;;;;;-2.13;100.00;101644.47;697896;28;1234;-58
2023/01/26 01:11:30;;;;;;;55.53;24.40;;;;;;;-2.26;100.00;101654.75;694864;28;3448;-60
2023/01/26 01:11:51;;;;;;;55.80;23.53;;;;;;;-2.32;100.00;101647.56;697546;28;1217;-59
2023/01/26 01:12:11;;;;;;;56.83;24.23;;;;;;;-2.42;100.00;101640.97;696580;28;1152;-59
2023/01/26 01:12:32;;;;;;;54.03;23.87;;;;;;;-2.52;100.00;101645.41;697538;28;1106;-60
2023/01/26 01:12:52;;;;;;;54.08;24.02;;;;;;;-2.57;100.00;101634.88;693404;28;4445;-60
2023/01/26 01:13:13;;;;;;;54.20;24.43;;;;;;;-2.54;100.00;101635.06;694849;28;1076;-59
2023/01/26 01:13:34;;;;;;;57.63;25.60;;;;;;;-2.55;100.00;101633.28;696879;28;1295;-60
2023/01/26 01:13:54;;;;;;;59.08;26.50;;;;;;;-2.54;100.00;101641.88;696501;28;1173;-59
2023/01/26 01:14:15;;;;;;;58.20;26.00;;;;;;;-2.55;100.00;101629.84;694658;28;1107;-61
2023/01/26 01:14:35;;;;;;;57.85;26.17;;;;;;;-2.56;100.00;101634.09;694521;28;1143;-59
2023/01/26 01:14:55;;;;;;;57.43;26.13;;;;;;;-2.54;100.00;101632.50;694921;28;3418;-60
2023/01/26 01:15:17;;;;;;;60.20;25.90;;;;;;;-2.54;100.00;101632.50;697234;28;1269;-59
2023/01/26 01:15:38;;;;;;;60.75;26.20;;;;;;;-2.52;100.00;101633.50;695647;28;4754;-61
2023/01/26 01:15:59;;;;;;;60.15;25.33;;;;;;;-2.51;100.00;101635.25;696017;28;1352;-59
2023/01/26 01:16:20;;;;;;;61.00;26.17;;;;;;;-2.53;100.00;101634.28;692004;28;3705;-59
2023/01/26 01:16:41;;;;;;;62.70;26.20;;;;;;;-2.44;100.00;101634.88;692202;28;3271;-59
2023/01/26 01:17:02;;;;;;;60.08;27.08;;;;;;;-2.29;100.00;101632.38;692272;28;1318;-61
2023/01/26 01:17:22;;;;;;;63.83;27.00;;;;;;;-2.29;100.00;101628.94;692448;28;3178;-60
2023/01/26 01:17:43;;;;;;;57.73;25.30;;;;;;;-2.25;100.00;101631.78;695580;28;1522;-58
2023/01/26 01:18:03;;;;;;;54.70;25.20;;;;;;;-2.25;100.00;101630.91;694757;28;1270;-58
2023/01/26 01:18:24;;;;;;;55.30;25.63;;;;;;;-2.26;100.00;101631.69;694116;28;1250;-59
2023/01/26 01:18:44;;;;;;;56.08;24.60;;;;;;;-2.29;100.00;101634.06;696771;28;4569;-60
2023/01/26 01:19:05;;;;;;;58.38;24.75;;;;;;;-2.34;100.00;101628.66;697540;28;1221;-61
2023/01/26 01:19:26;;;;;;;58.13;25.90;;;;;;;-2.27;100.00;101627.34;695529;28;1425;-58
2023/01/26 01:19:46;;;;;;;56.33;26.10;;;;;;;-2.21;100.00;101627.75;695710;28;1460;-61
2023/01/26 01:20:08;;;;;;;57.95;25.75;;;;;;;-2.26;100.00;101630.03;695610;28;1393;-60
2023/01/26 01:20:29;;;;;;;58.40;25.60;;;;;;;-2.27;100.00;101630.81;697058;28;1170;-60
2023/01/26 01:20:49;;;;;;;54.10;24.90;;;;;;;-2.20;100.00;101620.94;698214;28;1130;-59
2023/01/26 01:21:12;;;;;;;57.47;24.70;;;;;;;-2.19;100.00;101626.16;695363;28;1251;-60
2023/01/26 01:21:32;;;;;;;56.35;25.25;;;;;;;-2.25;100.00;101626.66;697193;28;1191;-58
2023/01/26 01:21:53;;;;;;;57.43;25.67;;;;;;;-2.29;100.00;101629.81;696367;28;4371;-59
2023/01/26 01:22:13;;;;;;;56.97;25.45;;;;;;;-2.26;100.00;101624.91;696760;28;1126;-59
2023/01/26 01:22:35;;;;;;;55.10;25.27;;;;;;;-2.22;100.00;101631.09;694182;28;1571;-60
2023/01/26 01:22:56;;;;;;;56.80;25.17;;;;;;;-2.22;100.00;101631.09;694790;28;1339;-60
2023/01/26 01:23:16;;;;;;;56.53;25.10;;;;;;;-2.20;100.00;101628.63;697342;28;3555;-58
2023/01/26 01:23:37;;;;;;;57.80;25.55;;;;;;;-2.21;100.00;101632.88;697493;28;1067;-60
2023/01/26 01:23:59;;;;;;;57.42;25.60;;;;;;;-2.26;100.00;101629.13;697506;28;1347;-60
2023/01/26 01:24:19;;;;;;;56.28;26.05;;;;;;;-2.32;100.00;101632.19;698000;28;1253;-60
2023/01/26 01:24:40;;;;;;;57.17;24.80;;;;;;;-2.36;100.00;101626.78;699197;28;4500;-60
2023/01/26 01:25:01;;;;;;;57.00;25.10;;;;;;;-2.32;100.00;101628.75;698883;28;1134;-59
2023/01/26 01:25:21;;;;;;;56.13;24.97;;;;;;;-2.18;100.00;101638.19;699426;28;1225;-59
2023/01/26 01:25:41;;;;;;;54.93;24.37;;;;;;;-2.14;100.00;101631.59;696812;28;1464;-59
2023/01/26 01:26:03;;;;;;;56.37;25.63;;;;;;;-2.08;100.00;101629.38;697082;28;3601;-58
2023/01/26 01:26:23;;;;;;;56.78;25.50;;;;;;;-2.06;100.00;101628.69;697201;28;1278;-59
2023/01/26 01:26:44;;;;;;;52.37;23.67;;;;;;;-2.13;100.00;101631.69;693486;28;1267;-59
2023/01/26 01:27:04;;;;;;;52.17;24.65;;;;;;;-2.20;100.00;101632.09;693877;28;1238;-58
2023/01/26 01:27:24;;;;;;;54.47;24.97;;;;;;;-2.32;100.00;101634.75;695970;28;1210;-59
2023/01/26 01:27:45;;;;;;;51.83;24.55;;;;;;;-2.40;100.00;101630.81;694379;28;4303;-59
2023/01/26 01:28:05;;;;;;;56.40;25.63;;;;;;;-2.47;100.00;101631.22;694080;28;1486;-60
2023/01/26 01:28:26;;;;;;;57.30;25.70;;;;;;;-2.54;100.00;101629.94;694792;28;1364;-59
2023/01/26 01:28:46;;;;;;;56.37;25.27;;;;;;;-2.49;100.00;101631.13;694492;28;3358;-59
2023/01/26 01:29:12;;;;;;;59.05;25.88;;;;;;;-2.40;100.00;101634.25;695354;28;1524;-61
2023/01/26 01:29:32;;;;;;;57.45;25.02;;;;;;;-2.34;100.00;101626.09;692078;28;1327;-59
2023/01/26 01:29:53;;;;;;;55.27;23.97;;;;;;;-2.29;100.00;101624.69;692668;28;1064;-59
2023/01/26 01:30:13;;;;;;;54.63;24.60;;;;;;;-2.29;100.00;101624.69;688935;28;1241;-59
2023/01/26 01:30:33;;;;;;;54.10;23.93;;;;;;;-2.32;100.00;101629.63;689473;28;1081;-60
2023/01/26 01:30:54;;;;;;;56.80;24.42;;;;;;;-2.37;100.00;101630.13;688862;28;4364;-60
2023/01/26 01:31:15;;;;;;;54.17;25.00;;;;;;;-2.40;100.00;101623.13;690047;28;1087;-59
2023/01/26 01:31:35;;;;;;;56.08;26.05;;;;;;;-2.29;100.00;101623.81;687767;28;3694;-60
2023/01/26 01:31:57;;;;;;;58.15;26.13;;;;;;;-2.24;100.00;101622.44;686343;28;1347;-60
2023/01/26 01:32:18;;;;;;;54.88;25.02;;;;;;;-2.22;100.00;101615.72;690358;28;1300;-59
2023/01/26 01:32:40;;;;;;;57.20;25.08;;;;;;;-2.27;100.00;101618.00;690259;28;1290;-58
2023/01/26 01:33:00;;;;;;;56.80;24.77;;;;;;;-2.28;100.00;101617.91;691567;28;1281;-60
2023/01/26 01:33:23;;;;;;;55.70;24.83;;;;;;;-2.29;100.00;101616.13;693315;28;1072;-59
2023/01/26 01:33:44;;;;;;;52.88;24.50;;;;;;;-2.28;100.00;101615.34;693045;28;4450;-58
2023/01/26 01:34:04;;;;;;;55.20;24.37;;;;;;;-2.29;100.00;101621.25;695017;28;1277;-59
2023/01/26 01:34:24;;;;;;;55.55;24.70;;;;;;;-2.35;100.00;101623.41;693658;28;1445;-60
2023/01/26 01:34:48;;;;;;;57.03;25.10;;;;;;;-2.39;100.00;101617.22;692446;28;1116;-59
2023/01/26 01:35:09;;;;;;;56.20;25.00;;;;;;;-2.39;100.00;101617.22;688806;28;1498;-59
2023/01/26 01:35:29;;;;;;;56.85;24.88;;;;;;;-2.40;100.00;101618.88;690149;28;1174;-60
2023/01/26 01:35:57;;;;;;;57.93;25.20;;;;;;;-2.41;100.00;101622.25;686867;28;3297;-59
2023/01/26 01:36:18;;;;;;;59.55;24.73;;;;;;;-2.39;100.00;101612.09;691270;28;1318;-59
2023/01/26 01:36:38;;;;;;;57.63;24.83;;;;;;;-2.40;100.00;101611.19;692997;28;4799;-60
2023/01/26 01:36:58;;;;;;;57.30;25.13;;;;;;;-2.43;100.00;101620.38;693493;28;1487;-59
2023/01/26 01:37:19;;;;;;;55.53;25.57;;;;;;;-2.45;100.00;101617.72;692896;28;1293;-60
2023/01/26 01:37:39;;;;;;;54.83;24.73;;;;;;;-2.48;100.00;101616.63;693072;28;1436;-59